Kindersley Airport, Saskatchewan

Past 24 Hour Conditions

This table is a summary of hourly weather conditions for the past 24 hours. This summary includes the following parameters: temperature, humidity, dew point, wind speed and direction, air pressure, visibility and/or wind chill and humidex.
Date / Time
(CST)
Conditions Temp (°F) Humidity (%) Dew Point (°F) Wind (mph) Pressure (inches) Visibility (miles)
24 April 2014
00:00 Mainly Clear 39 80 33 W 15 29.6 15
23 April 2014
23:00 Partly Cloudy 37   88 34 WSW 9 29.6 15
22:00 Partly Cloudy 38 87 35 WSW 8 29.6 15
21:00 Partly Cloudy 42 78 35 W 13 gust 19 29.6 15
20:00 Cloudy 43 75 36 W 17 gust 25 29.5 15
19:00 Cloudy 45 75 37 W 20 29.5 15
18:00 Cloudy 46 73 38 WNW 18 gust 25 29.5 15
17:00 Cloudy 46 79 40 WNW 16 gust 25 29.5 15
16:00 Cloudy 47 80 41 WNW 18 gust 24 29.4 15
15:00 Light Rain 47 87 43 W 15 gust 22 29.4 15
14:00 Light Rain 47 92 45 W 16 gust 22 29.4 15
13:00 Light Rain 46 95 44 ESE 9 29.4 15
12:00 Light Rain 43 95 42 SE 13 29.4 12
11:00 Light Rain 42 94 41 SE 20 gust 28 29.4 15
10:00 Light Rain 42 94 41 ESE 20 gust 27 29.4 15
9:00 Light Rain 41 93 40 ESE 19 gust 28 29.4 12
8:00 Light Rain 42 90 39 ESE 21 29.4 15
7:00 Light Rain 43 85 39 ESE 19 29.4 15
6:00 Light Rain 46 68 36 ESE 21 gust 28 29.4 15
5:00 Light Rain 46 66 36 E 21 gust 29 29.4 15
4:00 Light Rain 47 66 36 E 20 29.4 15
3:00 Cloudy 48 65 37 ESE 18 gust 24 29.4 15
2:00 Cloudy 50 59 36 ESE 23 29.4 15
1:00 Cloudy 51 56 36 ESE 19 gust 29 29.5 15
00:00 Cloudy 52   55 37 E 28 gust 35 29.4 15
N/A
Not available
 ↑ 
Highest temperature
 ↓ 
Lowest temperature

If you require additional historical weather information, please visit Climate Data Online.